createdAt,value
2022-08-07T00:00:00.000Z,7.22
2022-08-07T00:15:00.000Z,6.01
2022-08-07T00:30:00.000Z,5.6
2022-08-07T00:45:00.000Z,6.26
2022-08-07T01:00:00.000Z,6.72
2022-08-07T01:15:00.000Z,6.25
2022-08-07T01:30:00.000Z,5.99
2022-08-07T01:45:00.000Z,5.95
2022-08-07T02:00:00.000Z,6.74
2022-08-07T02:15:00.000Z,6.12
2022-08-07T02:45:00.000Z,6
2022-08-07T02:45:00.000Z,5.76
2022-08-07T03:00:00.000Z,5.88
2022-08-07T03:15:00.000Z,6.61
2022-08-07T03:30:00.000Z,6
2022-08-07T03:45:00.000Z,5.32
2022-08-07T04:00:00.000Z,6.72
2022-08-07T04:15:00.000Z,7.36
2022-08-07T04:30:00.000Z,7.51
2022-08-07T04:45:00.000Z,6.98
2022-08-07T05:00:00.000Z,7.12
2022-08-07T05:15:00.000Z,7.22
2022-08-07T05:30:00.000Z,7.07
2022-08-07T05:45:00.000Z,7.39
2022-08-07T06:00:00.000Z,7.4
2022-08-07T06:15:00.000Z,7.31
2022-08-07T06:30:00.000Z,7.15
2022-08-07T06:45:00.000Z,7.48
2022-08-07T07:00:00.000Z,8.18
2022-08-07T07:15:00.000Z,7.78
2022-08-07T07:30:00.000Z,6.02
2022-08-07T07:45:00.000Z,5.07
2022-08-07T08:00:00.000Z,4.48
2022-08-07T08:15:00.000Z,3.53
2022-08-07T08:30:00.000Z,3.44
2022-08-07T08:45:00.000Z,3.51
2022-08-07T09:00:00.000Z,3.55
2022-08-07T09:15:00.000Z,3.58
2022-08-07T09:30:00.000Z,3.25
2022-08-07T10:00:00.000Z,4
2022-08-07T10:00:00.000Z,3.27
2022-08-07T10:15:00.000Z,3.32
2022-08-07T10:30:00.000Z,3.29
2022-08-07T10:45:00.000Z,3.47
2022-08-07T11:00:00.000Z,3.19
2022-08-07T11:15:00.000Z,3.39
2022-08-07T11:30:00.000Z,3.38
2022-08-07T11:45:00.000Z,3.12
2022-08-07T12:00:00.000Z,3.2
2022-08-07T12:15:00.000Z,3.48
2022-08-07T12:30:00.000Z,3.32
2022-08-07T12:45:00.000Z,3.45
2022-08-07T13:00:00.000Z,3.69
2022-08-07T13:15:00.000Z,4.01
2022-08-07T13:30:00.000Z,3.67
2022-08-07T13:45:00.000Z,3.55
2022-08-07T14:00:00.000Z,3.86
2022-08-07T14:15:00.000Z,3.87
2022-08-07T14:30:00.000Z,4.46
2022-08-07T14:45:00.000Z,4.36
2022-08-07T15:00:00.000Z,4.16
2022-08-07T15:30:00.000Z,3.69
2022-08-07T15:45:00.000Z,4.13
2022-08-07T16:00:00.000Z,4.44
2022-08-07T16:15:00.000Z,3.72
2022-08-07T16:30:00.000Z,4.14
2022-08-07T16:45:00.000Z,4.44
2022-08-07T17:00:00.000Z,4.69
2022-08-07T17:15:00.000Z,3.88
2022-08-07T17:30:00.000Z,5
2022-08-07T17:45:00.000Z,4.65
2022-08-07T18:00:00.000Z,4.28
2022-08-07T18:15:00.000Z,4.38
2022-08-07T18:30:00.000Z,3.75
2022-08-07T18:45:00.000Z,3.54
2022-08-07T19:00:00.000Z,3.59
2022-08-07T19:15:00.000Z,3.88
2022-08-07T19:30:00.000Z,5.34
2022-08-07T19:45:00.000Z,3.69
2022-08-07T20:00:00.000Z,4.4
2022-08-07T20:15:00.000Z,4.53
2022-08-07T20:30:00.000Z,4.56
2022-08-07T20:45:00.000Z,4.6
2022-08-07T21:00:00.000Z,4.28
2022-08-07T21:15:00.000Z,4.59
2022-08-07T21:30:00.000Z,4.89
2022-08-07T21:45:00.000Z,4.94
2022-08-07T22:00:00.000Z,5.09
2022-08-07T22:15:00.000Z,4.99
2022-08-07T22:30:00.000Z,4.88
2022-08-07T22:45:00.000Z,4.95
2022-08-07T23:00:00.000Z,4.74
2022-08-07T23:15:00.000Z,3.48
2022-08-07T23:30:00.000Z,3.39
2022-08-07T23:45:00.000Z,3.28
